Wetterdaten für den Flughafen Lübeck Blankensee


ADDS - METARS form results Aviation Digital Data Service (ADDS) Output produced by METARs form (1513 UTC 16 October 2018)
found at http://www.aviationweather.gov/metar/data/
 
EDDH 161450Z 23005KT CAVOK 20/14 Q1018 NOSIG
TAF EDDH 161100Z 1612/1718 VRB03KT CAVOK BECMG 1623/1702 2500 BCFG PROB30 TEMPO 1702/1707 0600 FG BECMG 1707/1709 CAVOK

Nord: Hamburg, Lübeck
Ost: Schwerin, Rostock
Süd: Hannover
West: Bremen, Nordhloz

Copyright © 2016 Flugschule Hohensee